createdAt,value
2019-05-12T00:01:28.802Z,27.13
2019-05-12T00:03:57.907Z,26.70
2019-05-12T00:06:24.372Z,25.97
2019-05-12T00:08:51.223Z,25.90
2019-05-12T00:11:18.267Z,25.50
2019-05-12T00:13:45.096Z,26.97
2019-05-12T00:16:11.855Z,25.12
2019-05-12T00:18:38.679Z,25.92
2019-05-12T00:21:05.539Z,26.57
2019-05-12T00:23:34.303Z,25.75
2019-05-12T00:26:01.160Z,25.43
2019-05-12T00:28:28.383Z,26.07
2019-05-12T00:30:57.864Z,24.32
2019-05-12T00:33:24.383Z,26.00
2019-05-12T00:35:51.124Z,25.60
2019-05-12T00:38:18.069Z,26.10
2019-05-12T00:40:44.811Z,24.65
2019-05-12T00:43:11.747Z,25.17
2019-05-12T00:45:38.888Z,24.92
2019-05-12T00:48:08.650Z,23.15
2019-05-12T00:50:35.034Z,23.57
2019-05-12T00:53:01.761Z,24.43
2019-05-12T00:55:29.624Z,23.00
2019-05-12T00:57:58.135Z,23.22
2019-05-12T01:00:25.019Z,21.80
2019-05-12T01:02:51.786Z,23.25
2019-05-12T01:05:18.760Z,22.35
2019-05-12T01:07:45.616Z,22.27
2019-05-12T01:10:12.439Z,22.35
2019-05-12T01:12:39.400Z,23.47
2019-05-12T01:15:07.512Z,20.27
2019-05-12T01:17:34.576Z,22.22
2019-05-12T01:20:01.536Z,20.97
2019-05-12T01:22:28.283Z,21.07
2019-05-12T01:24:55.034Z,20.20
2019-05-12T01:27:21.900Z,21.33
2019-05-12T01:29:48.791Z,21.05
2019-05-12T01:32:18.300Z,21.23
2019-05-12T01:34:48.200Z,20.50
2019-05-12T01:37:23.767Z,20.00
2019-05-12T01:39:52.135Z,20.95
2019-05-12T01:42:19.071Z,21.42
2019-05-12T01:44:48.040Z,20.75
2019-05-12T01:47:14.464Z,21.37
2019-05-12T01:49:54.293Z,21.68
2019-05-12T01:52:21.167Z,21.02
2019-05-12T01:54:48.439Z,20.70
2019-05-12T01:57:15.472Z,20.45
2019-05-12T01:59:42.323Z,20.97
2019-05-12T02:02:09.070Z,19.92
2019-05-12T02:04:38.845Z,20.62
2019-05-12T02:07:08.354Z,20.70
2019-05-12T02:09:49.128Z,20.02
2019-05-12T02:12:18.212Z,18.95
2019-05-12T02:15:07.980Z,17.95
2019-05-12T02:17:34.832Z,20.12
2019-05-12T02:20:02.975Z,18.60
2019-05-12T02:22:29.820Z,19.32
2019-05-12T02:24:58.427Z,18.87
2019-05-12T02:27:25.203Z,18.87
2019-05-12T02:29:52.062Z,19.50
2019-05-12T02:32:18.905Z,19.35
2019-05-12T02:34:45.878Z,19.30
2019-05-12T02:37:15.357Z,19.60
2019-05-12T02:39:44.808Z,19.45
2019-05-12T02:42:10.320Z,18.37
2019-05-12T02:44:37.170Z,20.05
2019-05-12T02:47:05.079Z,19.20
2019-05-12T02:49:34.900Z,18.95
2019-05-12T02:52:01.063Z,19.70
2019-05-12T02:54:49.407Z,19.23
2019-05-12T02:56:56.446Z,18.60
2019-05-12T02:59:25.289Z,18.77
2019-05-12T03:01:54.818Z,19.80
2019-05-12T03:04:20.696Z,18.73
2019-05-12T03:06:47.547Z,18.48
2019-05-12T03:09:15.130Z,17.73
2019-05-12T03:12:05.885Z,17.67
2019-05-12T03:14:39.427Z,17.45
2019-05-12T03:17:04.582Z,17.05
2019-05-12T03:19:30.261Z,17.90
2019-05-12T03:21:57.148Z,17.37
2019-05-12T03:24:24.966Z,17.70
2019-05-12T03:26:55.333Z,17.75
2019-05-12T03:29:24.886Z,16.85
2019-05-12T03:31:50.453Z,17.53
2019-05-12T03:34:19.689Z,16.48
2019-05-12T03:36:51.088Z,15.95
2019-05-12T03:39:15.072Z,15.98
2019-05-12T03:41:44.555Z,17.17
2019-05-12T03:44:15.011Z,15.60
2019-05-12T03:46:40.854Z,16.65
2019-05-12T03:49:07.810Z,16.97
2019-05-12T03:51:35.253Z,16.10
2019-05-12T03:54:04.724Z,15.23
2019-05-12T03:56:34.190Z,16.10
2019-05-12T03:58:59.709Z,16.15
2019-05-12T04:01:26.468Z,15.75
2019-05-12T04:03:54.413Z,16.25
2019-05-12T04:06:24.207Z,17.45
2019-05-12T04:08:50.002Z,12.82
2019-05-12T04:11:16.852Z,16.80
2019-05-12T04:13:45.377Z,16.35
2019-05-12T04:16:16.031Z,17.57
2019-05-12T04:18:44.751Z,16.60
2019-05-12T04:21:09.868Z,17.57
2019-05-12T04:23:36.849Z,17.82
2019-05-12T04:26:11.373Z,17.75
2019-05-12T04:28:35.070Z,18.05
2019-05-12T04:31:05.237Z,16.87
2019-05-12T04:33:30.592Z,16.23
2019-05-12T04:35:57.560Z,16.93
2019-05-12T04:38:24.953Z,16.37
2019-05-12T04:41:00.240Z,17.20
2019-05-12T04:43:27.092Z,16.12
2019-05-12T04:46:14.674Z,15.28
2019-05-12T04:48:41.574Z,16.50
2019-05-12T04:51:08.393Z,15.78
2019-05-12T04:53:35.474Z,15.48
2019-05-12T04:56:14.482Z,16.65
2019-05-12T04:58:34.847Z,15.65
2019-05-12T05:00:59.734Z,16.93
2019-05-12T05:03:26.579Z,16.00
2019-05-12T05:05:54.916Z,16.85
2019-05-12T05:08:24.359Z,16.40
2019-05-12T05:10:50.838Z,16.07
2019-05-12T05:13:17.680Z,16.07
2019-05-12T05:15:44.951Z,16.42
2019-05-12T05:18:13.333Z,16.52
2019-05-12T05:20:40.543Z,15.68
2019-05-12T05:23:07.396Z,14.43
2019-05-12T05:25:34.421Z,14.78
2019-05-12T05:28:03.996Z,13.93
2019-05-12T05:30:30.751Z,15.13
2019-05-12T05:32:57.715Z,15.35
2019-05-12T05:35:28.867Z,15.63
2019-05-12T05:37:54.025Z,15.60
2019-05-12T05:40:28.456Z,14.68
2019-05-12T05:42:49.856Z,15.35
2019-05-12T05:45:21.579Z,15.43
2019-05-12T05:47:48.675Z,15.05
2019-05-12T05:50:18.361Z,14.30
2019-05-12T05:52:43.794Z,14.18
2019-05-12T05:55:20.140Z,14.83
2019-05-12T05:57:39.620Z,14.85
2019-05-12T06:00:16.428Z,14.80
2019-05-12T06:02:40.171Z,13.95
2019-05-12T06:05:06.912Z,13.67
2019-05-12T06:07:38.765Z,13.40
2019-05-12T06:10:06.913Z,13.70
2019-05-12T06:12:33.764Z,15.00
2019-05-12T06:15:00.512Z,13.85
2019-05-12T06:17:27.484Z,12.73
2019-05-12T06:19:54.421Z,12.80
2019-05-12T06:22:23.440Z,12.50
2019-05-12T06:24:56.857Z,12.47
2019-05-12T06:27:21.020Z,12.55
2019-05-12T06:29:52.515Z,11.70
2019-05-12T06:32:16.896Z,11.80
2019-05-12T06:34:43.870Z,11.97
2019-05-12T06:37:14.651Z,12.78
2019-05-12T06:39:39.347Z,12.23
2019-05-12T06:42:12.756Z,11.70
2019-05-12T06:44:35.860Z,9.03
2019-05-12T06:47:08.016Z,11.48
2019-05-12T06:49:33.342Z,15.08
2019-05-12T06:52:03.423Z,12.90
2019-05-12T06:54:28.599Z,11.83
2019-05-12T06:57:16.574Z,12.30
2019-05-12T06:59:24.324Z,12.13
2019-05-12T07:02:04.299Z,11.48
2019-05-12T07:04:31.152Z,13.18
2019-05-12T07:07:00.710Z,17.52
2019-05-12T07:09:28.362Z,15.60
2019-05-12T07:12:02.775Z,17.43
2019-05-12T07:14:27.132Z,11.28
2019-05-12T07:17:01.469Z,14.07
2019-05-12T07:19:25.811Z,10.70
2019-05-12T07:21:58.219Z,13.08
2019-05-12T07:24:23.385Z,11.80
2019-05-12T07:26:54.441Z,10.55
2019-05-12T07:29:19.057Z,10.80
2019-05-12T07:31:45.893Z,10.65
2019-05-12T07:34:13.654Z,9.25
2019-05-12T07:36:40.707Z,10.08
2019-05-12T07:39:08.898Z,10.18
2019-05-12T07:41:42.426Z,10.53
2019-05-12T07:44:05.691Z,10.00
2019-05-12T07:46:34.261Z,9.70
2019-05-12T07:49:03.863Z,9.70
2019-05-12T07:51:38.389Z,13.58
2019-05-12T07:54:00.201Z,9.45
2019-05-12T07:56:46.817Z,11.43
2019-05-12T07:59:13.642Z,9.15
2019-05-12T08:01:46.598Z,8.80
2019-05-12T08:04:09.402Z,9.30
2019-05-12T08:06:41.759Z,8.78
2019-05-12T08:09:06.656Z,9.20
2019-05-12T08:11:36.639Z,8.75
2019-05-12T08:14:03.593Z,9.68
2019-05-12T08:16:36.218Z,9.05
2019-05-12T08:19:03.965Z,8.75
2019-05-12T08:21:34.797Z,20.52
2019-05-12T08:23:59.241Z,10.48
2019-05-12T08:26:26.115Z,9.08
2019-05-12T08:28:53.480Z,8.50
2019-05-12T08:31:23.488Z,9.55
2019-05-12T08:33:50.445Z,9.43
2019-05-12T08:36:17.314Z,11.55
2019-05-12T08:38:44.599Z,9.45
2019-05-12T08:41:11.714Z,8.70
2019-05-12T08:43:40.735Z,8.25
2019-05-12T08:46:12.214Z,8.85
2019-05-12T08:48:37.243Z,8.80
2019-05-12T08:51:05.326Z,9.50
2019-05-12T08:53:33.637Z,9.23
2019-05-12T08:56:04.988Z,7.92
2019-05-12T08:58:39.274Z,9.03
2019-05-12T09:00:59.299Z,8.40
2019-05-12T09:03:30.360Z,7.05
2019-05-12T09:05:55.396Z,6.78
2019-05-12T09:08:24.332Z,8.68
2019-05-12T09:10:55.174Z,7.10
2019-05-12T09:13:23.439Z,6.92
2019-05-12T09:15:50.933Z,10.25
2019-05-12T09:18:35.070Z,34.73
2019-05-12T09:21:00.596Z,25.32
2019-05-12T09:23:47.304Z,9.15
2019-05-12T09:26:18.649Z,20.05
2019-05-12T09:28:49.871Z,7.97
2019-05-12T09:31:14.050Z,7.62
2019-05-12T09:33:41.086Z,11.12
2019-05-12T09:36:11.527Z,8.80
2019-05-12T09:38:37.379Z,14.23
2019-05-12T09:41:05.443Z,7.87
2019-05-12T09:43:34.362Z,7.20
2019-05-12T09:46:03.807Z,10.23
2019-05-12T09:48:30.598Z,8.28
2019-05-12T09:51:02.062Z,8.80
2019-05-12T09:53:28.291Z,6.85
2019-05-12T09:55:58.373Z,10.45
2019-05-12T09:58:27.837Z,8.28
2019-05-12T10:00:54.497Z,11.40
2019-05-12T10:03:24.074Z,6.30
2019-05-12T10:06:04.206Z,9.65
2019-05-12T10:08:35.955Z,5.78
2019-05-12T10:11:00.148Z,11.20
2019-05-12T10:13:30.134Z,6.33
2019-05-12T10:15:58.738Z,7.08
2019-05-12T10:18:27.383Z,6.47
2019-05-12T10:23:27.264Z,7.47
2019-05-12T10:26:14.853Z,7.67
2019-05-12T10:28:43.701Z,11.70
2019-05-12T10:31:13.864Z,9.03
2019-05-12T10:33:43.163Z,8.50
2019-05-12T10:36:10.388Z,8.05
2019-05-12T10:38:37.857Z,8.68
2019-05-12T10:41:06.253Z,8.35
2019-05-12T10:43:34.219Z,9.05
2019-05-12T10:46:07.359Z,8.60
2019-05-12T10:48:34.550Z,8.95
2019-05-12T10:51:03.236Z,8.90
2019-05-12T10:53:30.329Z,8.73
2019-05-12T10:55:57.347Z,8.18
2019-05-12T10:58:24.834Z,8.50
2019-05-12T11:00:53.715Z,8.40
2019-05-12T11:03:20.616Z,8.48
2019-05-12T11:05:47.460Z,9.13
2019-05-12T11:08:14.543Z,15.43
2019-05-12T11:10:41.458Z,8.93
2019-05-12T11:36:51.076Z,9.18
2019-05-12T11:39:18.023Z,10.70
2019-05-12T11:41:44.794Z,9.73
2019-05-12T11:44:13.171Z,10.43
2019-05-12T11:46:40.392Z,11.12
2019-05-12T11:49:09.493Z,10.38
2019-05-12T11:51:36.003Z,11.08
2019-05-12T11:54:03.484Z,11.68
2019-05-12T11:56:33.461Z,11.45
2019-05-12T11:59:00.137Z,11.53
2019-05-12T12:01:28.387Z,11.50
2019-05-12T12:03:55.232Z,11.45
2019-05-12T12:06:23.971Z,15.45
2019-05-12T12:08:50.763Z,11.48
2019-05-12T12:11:24.308Z,10.32
2019-05-12T12:13:46.255Z,12.05
2019-05-12T12:16:14.112Z,12.60
2019-05-12T12:18:48.590Z,14.30
2019-05-12T12:21:09.912Z,12.03
2019-05-12T12:23:40.902Z,12.95
2019-05-12T12:26:05.635Z,12.65
2019-05-12T12:28:34.429Z,13.13
2019-05-12T12:31:05.281Z,14.35
2019-05-12T12:33:31.161Z,14.27
2019-05-12T12:36:00.881Z,13.70
2019-05-12T12:38:47.772Z,14.47
2019-05-12T12:41:14.719Z,13.93
2019-05-12T12:43:43.262Z,13.10
2019-05-12T12:46:19.794Z,15.63
2019-05-12T12:48:40.975Z,14.40
2019-05-12T12:51:07.715Z,14.78
2019-05-12T12:53:34.530Z,15.08
2019-05-12T12:56:01.291Z,13.80
2019-05-12T12:58:31.300Z,14.40
2019-05-12T13:00:57.224Z,15.15
2019-05-12T13:03:27.711Z,16.77
2019-05-12T13:05:54.247Z,14.18
2019-05-12T13:08:22.415Z,13.80
2019-05-12T13:10:51.911Z,14.47
2019-05-12T13:13:19.750Z,13.50
2019-05-12T13:15:46.697Z,13.98
2019-05-12T13:18:18.076Z,14.03
2019-05-12T13:20:43.546Z,14.20
2019-05-12T13:23:10.731Z,14.03
2019-05-12T13:25:38.726Z,15.38
2019-05-12T13:28:10.222Z,14.75
2019-05-12T13:30:45.575Z,15.08
2019-05-12T13:33:13.450Z,14.87
2019-05-12T13:35:37.584Z,16.65
2019-05-12T13:38:05.336Z,15.53
2019-05-12T13:40:36.135Z,15.83
2019-05-12T13:43:00.898Z,15.60
2019-05-12T13:45:30.526Z,15.28
2019-05-12T13:50:26.394Z,14.28
2019-05-12T13:52:54.252Z,14.80
2019-05-12T13:55:21.204Z,14.65
2019-05-12T13:57:56.384Z,15.05
2019-05-12T14:00:16.952Z,15.32
2019-05-12T14:02:44.331Z,15.28
2019-05-12T14:05:15.137Z,15.32
2019-05-12T14:07:43.500Z,15.88
2019-05-12T14:10:09.639Z,19.80
2019-05-12T14:12:37.587Z,20.10
2019-05-12T14:15:07.252Z,28.15
2019-05-12T14:17:37.119Z,23.55
2019-05-12T14:20:09.427Z,35.17
2019-05-12T14:22:34.487Z,37.38
2019-05-12T14:25:02.186Z,20.43
2019-05-12T14:27:29.352Z,25.85
2019-05-12T14:30:00.263Z,22.98
2019-05-12T14:32:24.836Z,29.97
2019-05-12T14:34:58.729Z,20.17
2019-05-12T14:37:24.287Z,20.20
2019-05-12T14:39:53.738Z,15.65
2019-05-12T14:42:26.008Z,18.77
2019-05-12T14:44:50.305Z,19.60
2019-05-12T14:47:19.360Z,25.05
2019-05-12T14:49:46.282Z,40.25
2019-05-12T14:52:13.489Z,52.55
2019-05-12T14:54:40.568Z,50.25
2019-05-12T14:57:07.891Z,150.85
2019-05-12T14:59:39.730Z,212.85
2019-05-12T15:02:10.621Z,80.57
2019-05-12T15:04:37.990Z,131.78
2019-05-12T15:07:09.651Z,49.77
2019-05-12T15:09:35.069Z,18.60
2019-05-12T15:12:03.609Z,30.50
2019-05-12T15:14:36.665Z,47.93
2019-05-12T15:17:00.072Z,40.23
2019-05-12T15:19:29.798Z,22.55
2019-05-12T15:22:07.595Z,21.57
2019-05-12T15:24:33.530Z,20.23
2019-05-12T15:27:00.972Z,15.20
2019-05-12T15:29:28.296Z,16.10
2019-05-12T15:31:56.813Z,15.15
2019-05-12T15:34:24.394Z,22.50
2019-05-12T15:36:55.987Z,33.95
2019-05-12T15:39:22.026Z,31.60
2019-05-12T15:41:51.051Z,26.75
2019-05-12T15:44:23.131Z,15.88
2019-05-12T15:46:46.831Z,15.25
2019-05-12T15:49:14.013Z,19.52
2019-05-12T15:51:51.010Z,17.00
2019-05-12T15:54:11.813Z,19.32
2019-05-12T15:56:39.018Z,14.60
2019-05-12T15:59:06.128Z,15.13
2019-05-12T16:01:33.742Z,16.35
2019-05-12T16:04:03.229Z,16.02
2019-05-12T16:06:29.466Z,16.48
2019-05-12T16:08:57.108Z,13.03
2019-05-12T16:11:24.564Z,12.65
2019-05-12T16:13:57.184Z,12.33
2019-05-12T16:16:21.649Z,12.60
2019-05-12T16:18:50.635Z,12.70
2019-05-12T16:21:17.544Z,14.35
2019-05-12T16:23:44.794Z,12.93
2019-05-12T16:26:14.676Z,12.03
2019-05-12T16:28:40.658Z,11.68
2019-05-12T16:31:08.843Z,11.65
2019-05-12T16:33:37.682Z,12.80
2019-05-12T16:36:06.651Z,19.60
2019-05-12T16:38:33.236Z,18.10
2019-05-12T16:41:00.313Z,12.40
2019-05-12T16:43:34.998Z,13.28
2019-05-12T16:46:18.973Z,16.23
2019-05-12T16:48:48.286Z,14.38
2019-05-12T16:53:43.625Z,16.48
2019-05-12T16:56:10.880Z,14.63
2019-05-12T16:58:37.869Z,17.73
2019-05-12T17:01:04.936Z,16.50
2019-05-12T17:03:34.014Z,12.98
2019-05-12T17:06:00.882Z,13.45
2019-05-12T17:08:27.952Z,13.40
2019-05-12T17:11:01.040Z,14.23
2019-05-12T17:13:25.591Z,14.05
2019-05-12T17:16:00.140Z,14.75
2019-05-12T17:18:27.699Z,14.15
2019-05-12T17:20:54.798Z,15.55
2019-05-12T17:23:24.601Z,14.03
2019-05-12T17:25:53.094Z,14.65
2019-05-12T17:28:20.080Z,15.28
2019-05-12T17:30:47.012Z,18.12
2019-05-12T17:33:22.331Z,15.78
2019-05-12T17:35:44.679Z,17.80
2019-05-12T17:38:19.718Z,16.52
2019-05-12T17:40:41.184Z,16.50
2019-05-12T17:43:11.881Z,14.68
2019-05-12T17:45:40.175Z,14.75
2019-05-12T17:48:07.992Z,15.23
2019-05-12T17:50:35.215Z,15.25
2019-05-12T17:53:04.319Z,15.98
2019-05-12T17:55:31.032Z,16.42
2019-05-12T17:57:58.053Z,17.52
2019-05-12T18:00:26.435Z,16.15
2019-05-12T18:02:56.273Z,17.57
2019-05-12T18:05:23.725Z,17.00
2019-05-12T18:07:53.193Z,16.65
2019-05-12T18:10:20.000Z,16.90
2019-05-12T18:12:47.091Z,18.20
2019-05-12T18:15:15.451Z,17.67
2019-05-12T18:17:57.994Z,17.42
2019-05-12T18:20:24.739Z,17.95
2019-05-12T18:22:53.529Z,18.35
2019-05-12T18:25:24.189Z,19.40
2019-05-12T18:27:50.959Z,19.17
2019-05-12T18:30:19.226Z,18.95
2019-05-12T18:32:47.949Z,19.05
2019-05-12T18:35:14.949Z,20.00
2019-05-12T18:37:41.836Z,19.50
2019-05-12T18:40:09.002Z,21.02
2019-05-12T18:42:36.034Z,21.70
2019-05-12T18:45:11.946Z,21.23
2019-05-12T18:47:36.420Z,22.27
2019-05-12T18:50:05.231Z,22.20
2019-05-12T18:52:36.455Z,23.02
2019-05-12T18:55:04.328Z,23.10
2019-05-12T18:57:33.699Z,24.10
2019-05-12T19:00:04.080Z,19.25
2019-05-12T19:02:28.817Z,26.12
2019-05-12T19:04:55.707Z,31.20
2019-05-12T19:07:38.671Z,27.45
2019-05-12T19:09:56.907Z,26.90
2019-05-12T19:12:31.895Z,30.23
2019-05-12T19:14:54.674Z,28.80
2019-05-12T19:17:24.042Z,28.10
2019-05-12T19:19:53.985Z,27.32
2019-05-12T19:22:19.104Z,28.10
2019-05-12T19:24:50.100Z,27.42
2019-05-12T19:27:16.555Z,26.50
2019-05-12T19:29:48.821Z,29.05
2019-05-12T19:32:14.377Z,29.67
2019-05-12T19:34:43.326Z,30.70
2019-05-12T19:37:11.079Z,28.38
2019-05-12T19:39:38.375Z,29.82
2019-05-12T19:42:05.319Z,28.87
2019-05-12T19:44:34.261Z,28.02
2019-05-12T19:47:01.279Z,29.25
2019-05-12T19:49:43.503Z,29.87
2019-05-12T19:51:58.173Z,29.70
2019-05-12T19:54:39.699Z,30.45
2019-05-12T19:57:12.959Z,30.25
2019-05-12T19:59:35.848Z,31.42
2019-05-12T20:02:04.091Z,32.05
2019-05-12T20:04:36.494Z,34.77
2019-05-12T20:06:59.947Z,40.17
2019-05-12T20:09:27.544Z,41.08
2019-05-12T20:11:54.744Z,46.05
2019-05-12T20:14:24.132Z,46.70
2019-05-12T20:16:50.284Z,48.65
2019-05-12T20:19:19.900Z,48.55
2019-05-12T20:21:45.840Z,43.02
2019-05-12T20:24:14.361Z,52.15
2019-05-12T20:26:41.195Z,40.40
2019-05-12T20:29:08.019Z,51.88
2019-05-12T20:31:43.422Z,54.67
2019-05-12T20:34:09.755Z,55.23
2019-05-12T20:36:33.957Z,54.60
2019-05-12T20:39:04.071Z,55.40
2019-05-12T20:41:30.259Z,53.17
2019-05-12T20:43:57.007Z,53.90
2019-05-12T20:46:25.740Z,54.65
2019-05-12T20:48:53.870Z,53.80
2019-05-12T20:51:20.952Z,53.45
2019-05-12T20:53:47.946Z,53.20
2019-05-12T20:56:20.087Z,52.13
2019-05-12T20:58:46.418Z,51.85
2019-05-12T21:01:13.939Z,49.58
2019-05-12T21:03:46.337Z,49.23
2019-05-12T21:06:09.743Z,51.02
2019-05-12T21:08:36.614Z,50.28
2019-05-12T21:11:03.351Z,50.85
2019-05-12T21:13:31.917Z,48.95
2019-05-12T21:15:59.031Z,48.52
2019-05-12T21:18:26.001Z,46.50
2019-05-12T21:20:54.838Z,43.13
2019-05-12T21:23:23.898Z,39.35
2019-05-12T21:25:53.314Z,39.73
2019-05-12T21:28:19.058Z,36.08
2019-05-12T21:34:52.279Z,33.30
2019-05-12T21:37:19.763Z,33.67
2019-05-12T21:39:50.969Z,28.95
2019-05-12T21:44:46.828Z,26.57
2019-05-12T21:47:13.860Z,30.68
2019-05-12T21:49:42.804Z,33.78
2019-05-12T21:52:09.927Z,46.75
2019-05-12T21:54:39.556Z,48.38
2019-05-12T21:57:05.496Z,44.83
2019-05-12T21:59:35.291Z,40.80
2019-05-12T22:02:01.209Z,30.60
2019-05-12T22:04:32.953Z,18.12
2019-05-12T22:06:57.355Z,18.82
2019-05-12T22:09:25.543Z,20.27
2019-05-12T22:11:54.164Z,15.95
2019-05-12T22:14:20.999Z,14.73
2019-05-12T22:16:49.728Z,15.03
2019-05-12T22:19:16.568Z,16.62
2019-05-12T22:21:48.032Z,15.15
2019-05-12T22:24:14.694Z,12.85
2019-05-12T22:26:45.958Z,12.80
2019-05-12T22:29:09.595Z,9.73
2019-05-12T22:31:49.687Z,12.80
2019-05-12T22:34:16.624Z,10.30
2019-05-12T22:36:45.369Z,9.08
2019-05-12T22:39:14.156Z,9.45
2019-05-12T22:41:41.540Z,7.67
2019-05-12T22:44:08.954Z,6.90
2019-05-12T22:46:35.961Z,6.65
2019-05-12T22:49:04.156Z,6.55
2019-05-12T22:51:31.256Z,5.97
2019-05-12T22:54:00.585Z,6.25
2019-05-12T22:56:26.724Z,6.97
2019-05-12T22:58:59.974Z,7.03
2019-05-12T23:04:18.235Z,7.00
2019-05-12T23:06:46.800Z,7.47
2019-05-12T23:09:13.952Z,6.92
2019-05-12T23:11:41.108Z,8.40
2019-05-12T23:14:12.501Z,8.18
2019-05-12T23:16:37.148Z,7.85
2019-05-12T23:19:10.375Z,8.50
2019-05-12T23:21:33.279Z,9.40
2019-05-12T23:24:00.874Z,8.25
2019-05-12T23:26:33.257Z,6.50
2019-05-12T23:28:56.979Z,6.28
2019-05-12T23:31:26.129Z,6.25
2019-05-12T23:33:54.368Z,6.55
2019-05-12T23:36:35.208Z,6.58
2019-05-12T23:38:54.423Z,6.80
2019-05-12T23:41:19.345Z,7.28
2019-05-12T23:43:46.323Z,7.67
2019-05-12T23:46:13.438Z,9.25
2019-05-12T23:48:40.310Z,12.82
2019-05-12T23:51:07.431Z,15.78
2019-05-12T23:53:34.473Z,15.08
2019-05-12T23:56:03.773Z,14.87
2019-05-12T23:58:30.308Z,17.62
